PIC6025 VVNB-VVTS
Flight info
| Callsign | PIC6025 |
|---|---|
| Flight time | N/A |
| Altitude | 28000 |
| Route | NAH3A NAH W1 DOVIN5E |
| Aircraft | A321/M-SDE3FGHIRWY/LB1 |
Departure
| Time | 2026-05-07 08:33 |
|---|---|
| Airport | Noi Bai International Airport (VVNB) |
Arrival
| Time | N/A |
|---|---|
| Airport | Tan Son Nhat International Airport (VVTS) |
| Time | Latitude | Longitude | Altitude | Speed | Heading |
|---|---|---|---|---|---|
| 2026-05-07 07:59 | 21.21470 | 105.80681 | 55 ft | 0 kts | 287° |
| 2026-05-07 08:19 | 21.21470 | 105.80680 | 55 ft | 1 kts | 287° |
| 2026-05-07 08:19 | 21.21471 | 105.80677 | 55 ft | 0 kts | 288° |
| 2026-05-07 08:19 | 21.21471 | 105.80676 | 55 ft | 0 kts | 288° |
| 2026-05-07 08:20 | 21.21473 | 105.80669 | 55 ft | 0 kts | 288° |
| 2026-05-07 08:22 | 21.21477 | 105.80656 | 55 ft | 5 kts | 288° |
| 2026-05-07 08:22 | 21.21515 | 105.80618 | 55 ft | 9 kts | 360° |
| 2026-05-07 08:22 | 21.21597 | 105.80642 | 55 ft | 16 kts | 18° |
| 2026-05-07 08:22 | 21.21622 | 105.80651 | 55 ft | 6 kts | 18° |
| 2026-05-07 08:23 | 21.21684 | 105.80670 | 55 ft | 13 kts | 6° |
| 2026-05-07 08:23 | 21.21736 | 105.80587 | 55 ft | 10 kts | 284° |
| 2026-05-07 08:23 | 21.21742 | 105.80559 | 55 ft | 0 kts | 285° |
| 2026-05-07 08:23 | 21.21747 | 105.80543 | 55 ft | 6 kts | 286° |
| 2026-05-07 08:24 | 21.21766 | 105.80475 | 55 ft | 13 kts | 288° |
| 2026-05-07 08:24 | 21.21800 | 105.80359 | 55 ft | 20 kts | 287° |
| 2026-05-07 08:24 | 21.21848 | 105.80190 | 55 ft | 27 kts | 287° |
| 2026-05-07 08:24 | 21.21910 | 105.79973 | 55 ft | 33 kts | 287° |
| 2026-05-07 08:25 | 21.21978 | 105.79740 | 55 ft | 33 kts | 287° |
| 2026-05-07 08:25 | 21.22039 | 105.79527 | 55 ft | 21 kts | 287° |
| 2026-05-07 08:25 | 21.22076 | 105.79398 | 55 ft | 21 kts | 287° |
| 2026-05-07 08:25 | 21.22126 | 105.79227 | 55 ft | 28 kts | 287° |
| 2026-05-07 08:26 | 21.22243 | 105.78822 | 55 ft | 15 kts | 287° |
| 2026-05-07 08:26 | 21.22282 | 105.78687 | 55 ft | 23 kts | 287° |
| 2026-05-07 08:26 | 21.22304 | 105.78618 | 55 ft | 9 kts | 302° |
| 2026-05-07 08:27 | 21.22330 | 105.78605 | 55 ft | 7 kts | 352° |
| 2026-05-07 08:27 | 21.22354 | 105.78608 | 55 ft | 0 kts | 13° |
| 2026-05-07 08:29 | 21.22376 | 105.78614 | 55 ft | 7 kts | 15° |
| 2026-05-07 08:29 | 21.22440 | 105.78639 | 55 ft | 9 kts | 39° |
| 2026-05-07 08:30 | 21.22455 | 105.78689 | 55 ft | 11 kts | 99° |
| 2026-05-07 08:30 | 21.22449 | 105.78715 | 55 ft | 0 kts | 107° |
| 2026-05-07 08:32 | 21.22449 | 105.78716 | 55 ft | 0 kts | 107° |
| 2026-05-07 08:32 | 21.22436 | 105.78758 | 55 ft | 39 kts | 108° |
| 2026-05-07 08:32 | 21.22220 | 105.79512 | 71 ft | 168 kts | 107° |
| 2026-05-07 08:33 | 21.21829 | 105.80889 | 954 ft | 207 kts | 107° |
| 2026-05-07 08:33 | 21.21434 | 105.82306 | 3018 ft | 196 kts | 106° |
| 2026-05-07 08:33 | 21.21045 | 105.83719 | 5066 ft | 197 kts | 105° |
| 2026-05-07 08:33 | 21.20659 | 105.85154 | 6854 ft | 204 kts | 107° |
| 2026-05-07 08:34 | 21.20258 | 105.86630 | 8436 ft | 209 kts | 108° |
| 2026-05-07 08:34 | 21.19839 | 105.88140 | 9897 ft | 214 kts | 108° |
| 2026-05-07 08:34 | 21.19408 | 105.89689 | 11259 ft | 219 kts | 108° |
| 2026-05-07 08:34 | 21.18968 | 105.91271 | 12534 ft | 224 kts | 108° |
| 2026-05-07 08:35 | 21.18525 | 105.92866 | 13723 ft | 228 kts | 108° |
| 2026-05-07 08:35 | 21.18068 | 105.94511 | 14859 ft | 233 kts | 108° |
| 2026-05-07 08:35 | 21.17602 | 105.96189 | 15933 ft | 237 kts | 108° |
| 2026-05-07 08:35 | 21.16983 | 105.97840 | 16887 ft | 242 kts | 125° |
| 2026-05-07 08:36 | 21.15767 | 105.99054 | 17671 ft | 242 kts | 158° |
| 2026-05-07 08:36 | 21.14171 | 105.99533 | 18585 ft | 236 kts | 175° |
| 2026-05-07 08:36 | 21.12547 | 105.99831 | 19556 ft | 237 kts | 176° |
| 2026-05-07 08:36 | 21.10914 | 106.00105 | 20446 ft | 238 kts | 177° |
| 2026-05-07 08:37 | 21.09268 | 106.00370 | 21261 ft | 239 kts | 177° |
| 2026-05-07 08:37 | 21.07610 | 106.00632 | 21984 ft | 241 kts | 178° |
| 2026-05-07 08:37 | 21.05944 | 106.00892 | 22638 ft | 244 kts | 178° |
| 2026-05-07 08:37 | 21.04255 | 106.01154 | 23265 ft | 246 kts | 178° |
| 2026-05-07 08:38 | 21.02554 | 106.01416 | 23872 ft | 248 kts | 178° |
| 2026-05-07 08:38 | 21.00860 | 106.01677 | 24454 ft | 250 kts | 177° |
| 2026-05-07 08:38 | 20.99129 | 106.01943 | 25027 ft | 252 kts | 177° |
| 2026-05-07 08:38 | 20.97420 | 106.02207 | 25264 ft | 250 kts | 178° |
| 2026-05-07 08:39 | 20.95690 | 106.02471 | 25732 ft | 252 kts | 178° |
| 2026-05-07 08:39 | 20.93939 | 106.02738 | 26232 ft | 256 kts | 177° |
| 2026-05-07 08:39 | 20.92167 | 106.03009 | 26747 ft | 258 kts | 177° |
| 2026-05-07 08:39 | 20.90379 | 106.03283 | 27258 ft | 261 kts | 177° |
| 2026-05-07 08:40 | 20.88569 | 106.03560 | 27766 ft | 263 kts | 177° |
| 2026-05-07 08:40 | 20.86748 | 106.03838 | 28266 ft | 266 kts | 177° |
| 2026-05-07 08:40 | 20.84904 | 106.04120 | 28753 ft | 268 kts | 177° |
| 2026-05-07 08:40 | 20.83053 | 106.04403 | 29219 ft | 270 kts | 177° |
| 2026-05-07 08:41 | 20.81183 | 106.04689 | 29670 ft | 272 kts | 177° |
| 2026-05-07 08:41 | 20.79301 | 106.04977 | 30103 ft | 274 kts | 177° |
| 2026-05-07 08:41 | 20.77409 | 106.05266 | 30520 ft | 276 kts | 177° |
| 2026-05-07 08:41 | 20.75490 | 106.05559 | 30925 ft | 278 kts | 177° |
| 2026-05-07 08:42 | 20.73570 | 106.05852 | 31312 ft | 280 kts | 177° |
| 2026-05-07 08:42 | 20.71635 | 106.06147 | 31686 ft | 282 kts | 177° |
| 2026-05-07 08:42 | 20.69688 | 106.06445 | 32047 ft | 283 kts | 177° |
| 2026-05-07 08:42 | 20.67725 | 106.06744 | 32394 ft | 285 kts | 177° |
| 2026-05-07 08:43 | 20.65757 | 106.07044 | 32729 ft | 287 kts | 177° |
| 2026-05-07 08:43 | 20.63783 | 106.07345 | 33050 ft | 288 kts | 176° |
| 2026-05-07 08:43 | 20.61790 | 106.07649 | 33361 ft | 290 kts | 176° |
| 2026-05-07 08:43 | 20.59789 | 106.07954 | 33661 ft | 291 kts | 176° |
| 2026-05-07 08:44 | 20.57781 | 106.08265 | 33952 ft | 293 kts | 176° |
| 2026-05-07 08:44 | 20.55768 | 106.08623 | 34240 ft | 294 kts | 175° |
| 2026-05-07 08:44 | 20.53741 | 106.08998 | 34505 ft | 296 kts | 175° |
| 2026-05-07 08:44 | 20.51711 | 106.09374 | 34763 ft | 297 kts | 175° |
| 2026-05-07 08:45 | 20.49666 | 106.09753 | 35017 ft | 298 kts | 175° |
| 2026-05-07 08:45 | 20.47641 | 106.10128 | 35261 ft | 300 kts | 175° |
| 2026-05-07 08:45 | 20.45547 | 106.10514 | 35429 ft | 305 kts | 175° |
| 2026-05-07 08:45 | 20.43422 | 106.10904 | 35508 ft | 314 kts | 175° |
| 2026-05-07 08:46 | 20.41260 | 106.11296 | 35586 ft | 325 kts | 175° |
| 2026-05-07 08:46 | 20.38993 | 106.11698 | 35664 ft | 337 kts | 175° |
| 2026-05-07 08:46 | 20.36635 | 106.12109 | 35742 ft | 350 kts | 175° |
| 2026-05-07 08:46 | 20.34180 | 106.12756 | 35815 ft | 370 kts | 160° |
| 2026-05-07 08:47 | 20.31906 | 106.14087 | 35895 ft | 386 kts | 152° |
| 2026-05-07 08:47 | 20.29533 | 106.15578 | 35966 ft | 398 kts | 153° |
| 2026-05-07 08:47 | 20.27093 | 106.17016 | 35989 ft | 411 kts | 155° |
| 2026-05-07 08:47 | 20.24518 | 106.18449 | 35994 ft | 424 kts | 156° |
| 2026-05-07 08:48 | 20.21803 | 106.19900 | 35995 ft | 437 kts | 156° |
| 2026-05-07 08:48 | 20.19073 | 106.21323 | 35995 ft | 448 kts | 157° |
| 2026-05-07 08:48 | 20.13375 | 106.24239 | 35994 ft | 453 kts | 157° |
| 2026-05-07 08:49 | 20.07675 | 106.27133 | 35994 ft | 453 kts | 157° |
| 2026-05-07 08:49 | 20.01975 | 106.30015 | 35994 ft | 453 kts | 158° |
| 2026-05-07 08:50 | 19.96279 | 106.32883 | 35994 ft | 453 kts | 158° |
| 2026-05-07 08:50 | 19.90566 | 106.35752 | 35994 ft | 453 kts | 158° |
| 2026-05-07 08:51 | 19.84896 | 106.38591 | 35994 ft | 453 kts | 158° |
| 2026-05-07 08:51 | 19.79191 | 106.41443 | 35994 ft | 453 kts | 158° |
| 2026-05-07 08:52 | 19.73485 | 106.44289 | 35994 ft | 453 kts | 158° |
| 2026-05-07 08:52 | 19.67772 | 106.47135 | 35994 ft | 453 kts | 158° |
| 2026-05-07 08:53 | 19.62056 | 106.49977 | 35994 ft | 453 kts | 158° |
| 2026-05-07 08:53 | 19.56351 | 106.52812 | 35994 ft | 453 kts | 158° |
| 2026-05-07 08:54 | 19.50633 | 106.55649 | 35994 ft | 453 kts | 158° |
| 2026-05-07 08:54 | 19.44914 | 106.58484 | 35994 ft | 453 kts | 158° |
| 2026-05-07 08:55 | 19.39203 | 106.61312 | 35994 ft | 453 kts | 158° |
| 2026-05-07 08:55 | 19.33487 | 106.64140 | 35994 ft | 453 kts | 158° |
| 2026-05-07 08:56 | 19.27775 | 106.66963 | 35994 ft | 453 kts | 158° |
| 2026-05-07 08:56 | 19.22050 | 106.69780 | 35994 ft | 453 kts | 158° |
| 2026-05-07 08:57 | 19.16288 | 106.72481 | 35994 ft | 453 kts | 159° |
| 2026-05-07 08:57 | 19.10516 | 106.75169 | 35994 ft | 453 kts | 159° |
| 2026-05-07 08:58 | 19.04755 | 106.77855 | 35994 ft | 453 kts | 159° |
| 2026-05-07 08:58 | 18.98988 | 106.80545 | 35994 ft | 453 kts | 159° |
| 2026-05-07 08:59 | 18.93225 | 106.83236 | 35994 ft | 453 kts | 159° |
| 2026-05-07 08:59 | 18.87458 | 106.85929 | 35994 ft | 453 kts | 159° |
| 2026-05-07 09:00 | 18.81692 | 106.88616 | 35994 ft | 453 kts | 159° |
| 2026-05-07 09:00 | 18.75915 | 106.91303 | 35994 ft | 453 kts | 159° |
| 2026-05-07 09:01 | 18.70155 | 106.93983 | 35994 ft | 453 kts | 159° |
| 2026-05-07 09:01 | 18.64383 | 106.96667 | 35994 ft | 453 kts | 159° |
| 2026-05-07 09:02 | 18.58613 | 106.99351 | 35994 ft | 453 kts | 159° |
| 2026-05-07 09:02 | 18.52856 | 107.02027 | 35994 ft | 453 kts | 159° |
| 2026-05-07 09:03 | 18.47090 | 107.04707 | 35994 ft | 453 kts | 159° |
| 2026-05-07 09:03 | 18.41319 | 107.07385 | 35994 ft | 453 kts | 159° |
| 2026-05-07 09:04 | 18.35555 | 107.10061 | 35994 ft | 453 kts | 159° |
| 2026-05-07 09:04 | 18.29832 | 107.12717 | 35994 ft | 452 kts | 159° |
| 2026-05-07 09:05 | 18.24061 | 107.15396 | 35994 ft | 452 kts | 159° |
| 2026-05-07 09:05 | 18.19226 | 107.17639 | 35994 ft | 452 kts | 159° |
| 2026-05-07 09:06 | 18.12524 | 107.20746 | 35994 ft | 452 kts | 159° |
| 2026-05-07 09:06 | 18.07697 | 107.22983 | 35994 ft | 452 kts | 159° |
| 2026-05-07 09:07 | 18.01982 | 107.25676 | 35994 ft | 453 kts | 159° |
| 2026-05-07 09:07 | 17.96242 | 107.28405 | 35994 ft | 453 kts | 159° |
| 2026-05-07 09:08 | 17.90496 | 107.31135 | 35994 ft | 453 kts | 159° |
| 2026-05-07 09:08 | 17.84764 | 107.33858 | 35994 ft | 453 kts | 159° |
| 2026-05-07 09:09 | 17.78908 | 107.36663 | 35994 ft | 452 kts | 158° |
| 2026-05-07 09:09 | 17.73167 | 107.39383 | 35994 ft | 452 kts | 159° |
| 2026-05-07 09:10 | 17.67424 | 107.42100 | 35994 ft | 452 kts | 159° |
| 2026-05-07 09:10 | 17.61757 | 107.44781 | 35994 ft | 452 kts | 159° |
| 2026-05-07 09:11 | 17.59075 | 107.46327 | 35955 ft | 457 kts | 147° |
| 2026-05-07 09:11 | 17.56424 | 107.48208 | 35982 ft | 454 kts | 154° |
| 2026-05-07 09:11 | 17.50662 | 107.50879 | 35994 ft | 452 kts | 160° |
| 2026-05-07 09:12 | 17.44865 | 107.53418 | 35994 ft | 452 kts | 160° |
| 2026-05-07 09:12 | 17.39083 | 107.55993 | 35994 ft | 452 kts | 160° |
| 2026-05-07 09:13 | 17.33300 | 107.58603 | 35994 ft | 452 kts | 159° |
| 2026-05-07 09:13 | 17.27526 | 107.61237 | 35994 ft | 452 kts | 159° |
| 2026-05-07 09:14 | 17.21765 | 107.63884 | 35994 ft | 452 kts | 159° |
| 2026-05-07 09:14 | 17.16041 | 107.66530 | 35994 ft | 452 kts | 159° |
| 2026-05-07 09:15 | 17.10291 | 107.69223 | 35994 ft | 452 kts | 158° |
| 2026-05-07 09:15 | 17.04557 | 107.71967 | 35994 ft | 452 kts | 158° |
| 2026-05-07 09:16 | 16.98843 | 107.74713 | 35994 ft | 452 kts | 158° |
| 2026-05-07 09:16 | 16.93111 | 107.77473 | 35994 ft | 452 kts | 158° |
| 2026-05-07 09:17 | 16.87393 | 107.80230 | 35994 ft | 452 kts | 158° |
| 2026-05-07 09:17 | 16.81703 | 107.82976 | 35994 ft | 452 kts | 158° |
| 2026-05-07 09:18 | 16.75990 | 107.85734 | 35994 ft | 452 kts | 158° |
| 2026-05-07 09:18 | 16.70274 | 107.88495 | 35994 ft | 452 kts | 158° |
| 2026-05-07 09:19 | 16.64563 | 107.91252 | 35994 ft | 452 kts | 158° |
| 2026-05-07 09:19 | 16.58845 | 107.94015 | 35994 ft | 452 kts | 158° |
| 2026-05-07 09:20 | 16.53127 | 107.96777 | 35994 ft | 452 kts | 158° |
| 2026-05-07 09:20 | 16.47411 | 107.99533 | 35994 ft | 452 kts | 158° |
| 2026-05-07 09:21 | 16.41692 | 108.02289 | 35994 ft | 452 kts | 158° |
| 2026-05-07 09:21 | 16.35974 | 108.05045 | 35994 ft | 452 kts | 158° |
| 2026-05-07 09:22 | 16.30266 | 108.07796 | 35994 ft | 452 kts | 158° |
| 2026-05-07 09:22 | 16.24548 | 108.10550 | 35994 ft | 452 kts | 158° |
| 2026-05-07 09:23 | 16.18828 | 108.13303 | 35994 ft | 452 kts | 158° |
| 2026-05-07 09:23 | 16.13115 | 108.16053 | 35994 ft | 452 kts | 158° |
| 2026-05-07 09:24 | 16.07338 | 108.18627 | 35992 ft | 450 kts | 165° |
| 2026-05-07 09:24 | 16.01245 | 108.19713 | 35994 ft | 442 kts | 181° |
| 2026-05-07 09:25 | 15.95093 | 108.19632 | 35994 ft | 441 kts | 184° |
| 2026-05-07 09:25 | 15.88957 | 108.19492 | 35994 ft | 441 kts | 184° |
| 2026-05-07 09:26 | 15.82812 | 108.19352 | 35994 ft | 441 kts | 184° |
| 2026-05-07 09:26 | 15.76663 | 108.19215 | 35994 ft | 441 kts | 184° |
| 2026-05-07 09:27 | 15.70565 | 108.19079 | 35994 ft | 441 kts | 184° |
| 2026-05-07 09:28 | 15.61355 | 108.18877 | 35994 ft | 441 kts | 184° |
| 2026-05-07 09:28 | 15.55210 | 108.18742 | 35994 ft | 441 kts | 184° |
| 2026-05-07 09:29 | 15.49056 | 108.18608 | 35994 ft | 441 kts | 184° |
| 2026-05-07 09:29 | 15.42912 | 108.18475 | 35994 ft | 441 kts | 184° |
| 2026-05-07 09:30 | 15.36765 | 108.18342 | 35994 ft | 441 kts | 184° |
| 2026-05-07 09:30 | 15.30655 | 108.18210 | 35994 ft | 441 kts | 184° |
| 2026-05-07 09:31 | 15.24476 | 108.18077 | 35994 ft | 441 kts | 184° |
| 2026-05-07 09:31 | 15.18331 | 108.17944 | 35994 ft | 441 kts | 184° |
| 2026-05-07 09:32 | 15.12189 | 108.17812 | 35994 ft | 441 kts | 184° |
| 2026-05-07 09:32 | 15.06045 | 108.17679 | 35994 ft | 441 kts | 184° |
| 2026-05-07 09:33 | 14.99906 | 108.17544 | 35994 ft | 441 kts | 184° |
| 2026-05-07 09:33 | 14.93756 | 108.17408 | 35994 ft | 441 kts | 184° |
| 2026-05-07 09:34 | 14.87646 | 108.17273 | 35994 ft | 441 kts | 184° |
| 2026-05-07 09:34 | 14.81515 | 108.17137 | 35994 ft | 441 kts | 184° |
| 2026-05-07 09:35 | 14.75369 | 108.17002 | 35994 ft | 441 kts | 184° |
| 2026-05-07 09:35 | 14.70214 | 108.16888 | 35994 ft | 441 kts | 184° |
| 2026-05-07 09:36 | 14.64080 | 108.16753 | 35994 ft | 441 kts | 184° |
| 2026-05-07 09:36 | 14.57980 | 108.16618 | 35994 ft | 441 kts | 184° |
| 2026-05-07 09:37 | 14.51826 | 108.16483 | 35994 ft | 441 kts | 184° |
| 2026-05-07 09:37 | 14.45683 | 108.16347 | 35994 ft | 441 kts | 184° |
| 2026-05-07 09:38 | 14.39541 | 108.16212 | 35994 ft | 441 kts | 184° |
| 2026-05-07 09:38 | 14.33394 | 108.16077 | 35994 ft | 441 kts | 184° |
| 2026-05-07 09:39 | 14.27264 | 108.15943 | 35994 ft | 441 kts | 184° |
| 2026-05-07 09:39 | 14.21119 | 108.15811 | 35994 ft | 441 kts | 184° |
| 2026-05-07 09:40 | 14.14981 | 108.15681 | 35994 ft | 441 kts | 184° |
| 2026-05-07 09:40 | 14.08837 | 108.15550 | 35994 ft | 441 kts | 184° |
| 2026-05-07 09:41 | 14.02698 | 108.15419 | 35994 ft | 441 kts | 184° |
| 2026-05-07 09:41 | 13.96556 | 108.15286 | 35994 ft | 441 kts | 184° |
| 2026-05-07 09:42 | 13.90413 | 108.15151 | 35994 ft | 441 kts | 184° |
| 2026-05-07 09:42 | 13.84271 | 108.15017 | 35994 ft | 441 kts | 184° |
| 2026-05-07 09:43 | 13.78129 | 108.14882 | 35994 ft | 441 kts | 184° |
| 2026-05-07 09:43 | 13.71981 | 108.14747 | 35994 ft | 441 kts | 184° |
| 2026-05-07 09:44 | 13.65843 | 108.14612 | 35994 ft | 441 kts | 184° |
| 2026-05-07 09:44 | 13.59705 | 108.14478 | 35994 ft | 441 kts | 184° |
| 2026-05-07 09:45 | 13.53563 | 108.14343 | 35994 ft | 441 kts | 184° |
| 2026-05-07 09:45 | 13.47415 | 108.14209 | 35994 ft | 441 kts | 184° |
| 2026-05-07 09:46 | 13.41275 | 108.14075 | 35994 ft | 441 kts | 184° |
| 2026-05-07 09:46 | 13.35129 | 108.13940 | 35994 ft | 441 kts | 184° |
| 2026-05-07 09:47 | 13.29031 | 108.13798 | 35994 ft | 441 kts | 185° |
| 2026-05-07 09:47 | 13.22894 | 108.13650 | 35994 ft | 441 kts | 185° |
| 2026-05-07 09:48 | 13.16739 | 108.13502 | 35994 ft | 441 kts | 185° |
| 2026-05-07 09:48 | 13.10602 | 108.13354 | 35994 ft | 441 kts | 185° |
| 2026-05-07 09:49 | 13.04460 | 108.13207 | 35994 ft | 441 kts | 185° |
| 2026-05-07 09:49 | 12.98307 | 108.13059 | 35994 ft | 441 kts | 185° |
| 2026-05-07 09:50 | 12.92166 | 108.12912 | 35994 ft | 441 kts | 185° |
| 2026-05-07 09:50 | 12.86022 | 108.12764 | 35994 ft | 441 kts | 185° |
| 2026-05-07 09:51 | 12.79891 | 108.12617 | 35994 ft | 441 kts | 185° |
| 2026-05-07 09:51 | 12.73779 | 108.12471 | 35994 ft | 441 kts | 184° |
| 2026-05-07 09:52 | 12.67598 | 108.12323 | 35994 ft | 441 kts | 184° |
| 2026-05-07 09:52 | 12.61459 | 108.12193 | 35994 ft | 441 kts | 184° |
| 2026-05-07 09:53 | 12.55318 | 108.12071 | 35994 ft | 441 kts | 184° |
| 2026-05-07 09:53 | 12.49181 | 108.11949 | 35994 ft | 441 kts | 184° |
| 2026-05-07 09:54 | 12.43032 | 108.11827 | 35994 ft | 441 kts | 184° |
| 2026-05-07 09:54 | 12.36891 | 108.11705 | 35994 ft | 441 kts | 184° |
| 2026-05-07 09:55 | 12.30750 | 108.11583 | 35994 ft | 441 kts | 184° |
| 2026-05-07 09:55 | 12.24604 | 108.11460 | 35994 ft | 441 kts | 184° |
| 2026-05-07 09:56 | 12.18453 | 108.11338 | 35994 ft | 441 kts | 184° |
| 2026-05-07 09:56 | 12.12321 | 108.11216 | 35994 ft | 441 kts | 184° |
| 2026-05-07 09:57 | 12.06165 | 108.11093 | 35994 ft | 441 kts | 184° |
| 2026-05-07 09:57 | 12.00018 | 108.10971 | 35994 ft | 441 kts | 184° |
| 2026-05-07 09:58 | 11.93914 | 108.10592 | 35991 ft | 437 kts | 194° |
| 2026-05-07 09:58 | 11.91039 | 108.09678 | 35993 ft | 432 kts | 206° |
| 2026-05-07 09:58 | 11.88442 | 108.08170 | 35994 ft | 427 kts | 218° |
| 2026-05-07 09:59 | 11.83724 | 108.04468 | 35994 ft | 427 kts | 220° |
| 2026-05-07 09:59 | 11.79051 | 108.00731 | 35994 ft | 427 kts | 220° |
| 2026-05-07 10:00 | 11.74376 | 107.96994 | 35994 ft | 427 kts | 220° |
| 2026-05-07 10:00 | 11.69708 | 107.93265 | 35994 ft | 427 kts | 220° |
| 2026-05-07 10:01 | 11.65030 | 107.89530 | 35994 ft | 427 kts | 220° |
| 2026-05-07 10:01 | 11.60347 | 107.85793 | 35994 ft | 427 kts | 220° |
| 2026-05-07 10:02 | 11.55673 | 107.82065 | 35994 ft | 427 kts | 220° |
| 2026-05-07 10:02 | 11.50997 | 107.78338 | 35994 ft | 427 kts | 220° |
| 2026-05-07 10:03 | 11.46324 | 107.74615 | 35994 ft | 427 kts | 220° |
| 2026-05-07 10:03 | 11.41634 | 107.70880 | 35994 ft | 427 kts | 220° |
| 2026-05-07 10:04 | 11.36953 | 107.67153 | 35994 ft | 427 kts | 220° |
| 2026-05-07 10:04 | 11.32266 | 107.63424 | 35994 ft | 427 kts | 220° |
| 2026-05-07 10:05 | 11.27585 | 107.59701 | 35994 ft | 427 kts | 220° |
| 2026-05-07 10:05 | 11.22910 | 107.55984 | 35994 ft | 427 kts | 220° |
| 2026-05-07 10:06 | 11.18251 | 107.52282 | 35994 ft | 427 kts | 220° |
| 2026-05-07 10:06 | 11.13574 | 107.48567 | 35994 ft | 427 kts | 220° |
| 2026-05-07 10:07 | 11.08888 | 107.44847 | 35994 ft | 427 kts | 220° |
| 2026-05-07 10:07 | 11.04238 | 107.41089 | 35991 ft | 425 kts | 225° |
| 2026-05-07 10:07 | 11.02259 | 107.38869 | 35992 ft | 422 kts | 236° |
| 2026-05-07 10:08 | 11.00786 | 107.36297 | 35993 ft | 420 kts | 247° |
| 2026-05-07 10:08 | 10.98952 | 107.30676 | 35993 ft | 419 kts | 252° |
| 2026-05-07 10:08 | 10.97678 | 107.28015 | 35989 ft | 422 kts | 237° |
| 2026-05-07 10:09 | 10.96400 | 107.26509 | 35992 ft | 425 kts | 225° |